Angelim, Brazil
Current Conditions -  °F | °C
As of 4:00 AM on Friday 31 Oct 2014 (Local Time) from SBMO Reporting Station
Clear Clear  
Wind Chill: 73°   Ceiling: Unl
Heat Index: 73°   Visibility: 6mi
Dew Point: 72°   Wind: 3mph
Humidity: 94%   Direction: 40°NE
Pressure: 29.94"   Gusts: NA
Location:  8.89°S, 36.29°W
Report Text: SBMO 310700Z 04003KT CAVOK 23/22 Q1014
Loading
Personal Weather Stations






























Interactive Weather Map
Tropical Storm Tracking
New forecast layout! Learn more

10-Day Weather Forecast

Advertisements
Track Severe Weather on mobile